sensor_id;sensor_type;location;lat;lon;timestamp;pressure;altitude;pressure_sealevel;temperature;humidity
32131;BME280;18639;50.716;7.086;2023-04-21T00:02:07;100165.34;;;8.03;100.00
32131;BME280;18639;50.716;7.086;2023-04-21T00:04:33;100182.47;;;8.19;100.00
32131;BME280;18639;50.716;7.086;2023-04-21T00:06:59;100129.59;;;7.99;100.00
32131;BME280;18639;50.716;7.086;2023-04-21T00:09:28;100120.41;;;7.95;100.00
32131;BME280;18639;50.716;7.086;2023-04-21T00:11:53;100124.88;;;7.91;100.00
32131;BME280;18639;50.716;7.086;2023-04-21T00:14:19;100165.56;;;8.15;100.00
32131;BME280;18639;50.716;7.086;2023-04-21T00:16:44;100136.41;;;8.00;100.00
32131;BME280;18639;50.716;7.086;2023-04-21T00:19:10;100181.97;;;8.28;100.00
32131;BME280;18639;50.716;7.086;2023-04-21T00:21:37;100176.81;;;8.28;100.00
32131;BME280;18639;50.716;7.086;2023-04-21T00:24:03;100161.72;;;8.22;100.00
32131;BME280;18639;50.716;7.086;2023-04-21T00:26:28;100163.19;;;8.26;100.00
32131;BME280;18639;50.716;7.086;2023-04-21T00:28:54;100166.38;;;8.31;100.00
32131;BME280;18639;50.716;7.086;2023-04-21T00:31:19;100164.03;;;8.26;100.00
32131;BME280;18639;50.716;7.086;2023-04-21T00:33:44;100147.53;;;8.15;100.00
32131;BME280;18639;50.716;7.086;2023-04-21T00:36:09;100110.19;;;7.93;100.00
32131;BME280;18639;50.716;7.086;2023-04-21T00:38:35;100111.66;;;7.97;100.00
32131;BME280;18639;50.716;7.086;2023-04-21T00:41:00;100145.34;;;8.23;100.00
32131;BME280;18639;50.716;7.086;2023-04-21T00:43:25;100130.16;;;8.18;100.00
32131;BME280;18639;50.716;7.086;2023-04-21T00:45:51;100127.03;;;8.13;100.00
32131;BME280;18639;50.716;7.086;2023-04-21T00:48:16;100155.28;;;8.29;100.00
32131;BME280;18639;50.716;7.086;2023-04-21T00:50:42;100156.06;;;8.31;100.00
32131;BME280;18639;50.716;7.086;2023-04-21T00:53:08;100139.63;;;8.18;100.00
32131;BME280;18639;50.716;7.086;2023-04-21T00:55:34;100158.44;;;8.34;100.00
32131;BME280;18639;50.716;7.086;2023-04-21T00:58:01;100160.31;;;8.32;100.00
32131;BME280;18639;50.716;7.086;2023-04-21T01:00:27;100156.13;;;8.29;100.00
32131;BME280;18639;50.716;7.086;2023-04-21T01:02:53;100151.81;;;8.30;100.00
32131;BME280;18639;50.716;7.086;2023-04-21T01:05:18;100161.13;;;8.32;100.00
32131;BME280;18639;50.716;7.086;2023-04-21T01:07:44;100152.47;;;8.33;100.00
32131;BME280;18639;50.716;7.086;2023-04-21T01:10:09;100149.19;;;8.31;100.00
32131;BME280;18639;50.716;7.086;2023-04-21T01:12:45;100132.13;;;8.29;100.00
32131;BME280;18639;50.716;7.086;2023-04-21T01:15:12;100149.91;;;8.33;100.00
32131;BME280;18639;50.716;7.086;2023-04-21T01:17:38;100148.16;;;8.34;100.00
32131;BME280;18639;50.716;7.086;2023-04-21T01:20:07;100147.06;;;8.38;100.00
32131;BME280;18639;50.716;7.086;2023-04-21T01:22:36;100135.28;;;8.34;100.00
32131;BME280;18639;50.716;7.086;2023-04-21T01:25:01;100144.31;;;8.41;100.00
32131;BME280;18639;50.716;7.086;2023-04-21T01:27:27;100130.38;;;8.29;100.00
32131;BME280;18639;50.716;7.086;2023-04-21T01:29:53;100152.31;;;8.36;100.00
32131;BME280;18639;50.716;7.086;2023-04-21T01:32:24;100152.22;;;8.38;100.00
32131;BME280;18639;50.716;7.086;2023-04-21T01:34:50;100153.13;;;8.37;100.00
32131;BME280;18639;50.716;7.086;2023-04-21T01:37:20;100157.47;;;8.36;100.00
32131;BME280;18639;50.716;7.086;2023-04-21T01:39:49;100140.78;;;8.28;100.00
32131;BME280;18639;50.716;7.086;2023-04-21T01:42:21;100148.16;;;8.34;100.00
32131;BME280;18639;50.716;7.086;2023-04-21T01:44:46;100150.72;;;8.34;100.00
32131;BME280;18639;50.716;7.086;2023-04-21T01:47:14;100146.91;;;8.25;100.00
32131;BME280;18639;50.716;7.086;2023-04-21T01:49:39;100132.19;;;8.13;100.00
32131;BME280;18639;50.716;7.086;2023-04-21T01:52:05;100149.75;;;8.21;100.00
32131;BME280;18639;50.716;7.086;2023-04-21T01:54:30;100157.09;;;8.13;100.00
32131;BME280;18639;50.716;7.086;2023-04-21T01:56:55;100151.47;;;8.06;100.00
32131;BME280;18639;50.716;7.086;2023-04-21T01:59:22;100155.22;;;8.00;100.00
32131;BME280;18639;50.716;7.086;2023-04-21T02:01:50;100154.28;;;8.01;100.00
32131;BME280;18639;50.716;7.086;2023-04-21T02:04:15;100147.53;;;8.00;100.00
32131;BME280;18639;50.716;7.086;2023-04-21T02:06:41;100151.16;;;7.96;100.00
32131;BME280;18639;50.716;7.086;2023-04-21T02:09:06;100152.66;;;8.00;100.00
32131;BME280;18639;50.716;7.086;2023-04-21T02:11:31;100135.84;;;7.95;100.00
32131;BME280;18639;50.716;7.086;2023-04-21T02:13:57;100132.78;;;7.88;100.00
32131;BME280;18639;50.716;7.086;2023-04-21T02:16:22;100130.63;;;7.81;100.00
32131;BME280;18639;50.716;7.086;2023-04-21T02:18:51;100132.22;;;7.83;100.00
32131;BME280;18639;50.716;7.086;2023-04-21T02:21:18;100148.78;;;7.93;100.00
32131;BME280;18639;50.716;7.086;2023-04-21T02:23:43;100145.72;;;7.87;100.00
32131;BME280;18639;50.716;7.086;2023-04-21T02:26:09;100106.22;;;7.58;100.00
32131;BME280;18639;50.716;7.086;2023-04-21T02:28:34;100149.56;;;7.80;100.00
32131;BME280;18639;50.716;7.086;2023-04-21T02:30:59;100145.47;;;7.76;100.00
32131;BME280;18639;50.716;7.086;2023-04-21T02:33:25;100138.78;;;7.73;100.00
32131;BME280;18639;50.716;7.086;2023-04-21T02:35:50;100151.06;;;7.68;100.00
32131;BME280;18639;50.716;7.086;2023-04-21T02:38:15;100108.06;;;7.40;100.00
32131;BME280;18639;50.716;7.086;2023-04-21T02:40:43;100147.34;;;7.58;100.00
32131;BME280;18639;50.716;7.086;2023-04-21T02:43:08;100141.03;;;7.48;100.00
32131;BME280;18639;50.716;7.086;2023-04-21T02:45:35;100132.34;;;7.35;100.00
32131;BME280;18639;50.716;7.086;2023-04-21T02:48:01;100150.75;;;7.43;100.00
32131;BME280;18639;50.716;7.086;2023-04-21T02:50:26;100152.84;;;7.36;100.00
32131;BME280;18639;50.716;7.086;2023-04-21T02:52:54;100152.41;;;7.28;100.00
32131;BME280;18639;50.716;7.086;2023-04-21T02:55:20;100121.91;;;7.06;100.00
32131;BME280;18639;50.716;7.086;2023-04-21T02:57:46;100139.75;;;7.09;100.00
32131;BME280;18639;50.716;7.086;2023-04-21T03:00:12;100138.97;;;7.07;100.00
32131;BME280;18639;50.716;7.086;2023-04-21T03:02:38;100130.88;;;6.99;100.00
32131;BME280;18639;50.716;7.086;2023-04-21T03:05:06;100140.13;;;7.02;100.00
32131;BME280;18639;50.716;7.086;2023-04-21T03:07:33;100126.38;;;6.87;100.00
32131;BME280;18639;50.716;7.086;2023-04-21T03:10:05;100123.22;;;6.82;100.00
32131;BME280;18639;50.716;7.086;2023-04-21T03:12:33;100148.28;;;6.94;100.00
32131;BME280;18639;50.716;7.086;2023-04-21T03:15:05;100159.59;;;6.90;100.00
32131;BME280;18639;50.716;7.086;2023-04-21T03:17:31;100086.84;;;6.41;100.00
32131;BME280;18639;50.716;7.086;2023-04-21T03:19:56;100165.97;;;6.83;100.00
32131;BME280;18639;50.716;7.086;2023-04-21T03:22:24;100134.63;;;6.61;100.00
32131;BME280;18639;50.716;7.086;2023-04-21T03:24:52;100084.84;;;6.30;100.00
32131;BME280;18639;50.716;7.086;2023-04-21T03:27:22;100124.78;;;6.52;100.00
32131;BME280;18639;50.716;7.086;2023-04-21T03:29:51;100107.13;;;6.30;100.00
32131;BME280;18639;50.716;7.086;2023-04-21T03:32:21;100136.84;;;6.51;100.00
32131;BME280;18639;50.716;7.086;2023-04-21T03:34:47;100140.19;;;6.52;100.00
32131;BME280;18639;50.716;7.086;2023-04-21T03:37:22;100154.38;;;6.59;100.00
32131;BME280;18639;50.716;7.086;2023-04-21T03:39:52;100159.09;;;6.51;100.00
32131;BME280;18639;50.716;7.086;2023-04-21T03:42:17;100153.78;;;6.54;100.00
32131;BME280;18639;50.716;7.086;2023-04-21T03:44:46;100081.72;;;6.08;100.00
32131;BME280;18639;50.716;7.086;2023-04-21T03:47:15;100154.41;;;6.42;100.00
32131;BME280;18639;50.716;7.086;2023-04-21T03:49:46;100141.16;;;6.33;100.00
32131;BME280;18639;50.716;7.086;2023-04-21T03:52:12;100102.16;;;6.10;100.00
32131;BME280;18639;50.716;7.086;2023-04-21T03:54:40;100084.00;;;5.97;100.00
32131;BME280;18639;50.716;7.086;2023-04-21T03:57:08;100139.94;;;6.23;100.00
32131;BME280;18639;50.716;7.086;2023-04-21T03:59:33;100146.88;;;6.21;100.00
32131;BME280;18639;50.716;7.086;2023-04-21T04:01:59;100115.66;;;5.96;100.00
32131;BME280;18639;50.716;7.086;2023-04-21T04:04:24;100170.28;;;6.32;100.00
32131;BME280;18639;50.716;7.086;2023-04-21T04:06:49;100126.97;;;6.09;100.00
32131;BME280;18639;50.716;7.086;2023-04-21T04:09:15;100159.19;;;6.32;100.00
32131;BME280;18639;50.716;7.086;2023-04-21T04:11:40;100151.06;;;6.24;100.00
32131;BME280;18639;50.716;7.086;2023-04-21T04:14:05;100151.72;;;6.27;100.00
32131;BME280;18639;50.716;7.086;2023-04-21T04:16:33;100161.16;;;6.27;100.00
32131;BME280;18639;50.716;7.086;2023-04-21T04:18:58;100150.44;;;6.19;100.00
32131;BME280;18639;50.716;7.086;2023-04-21T04:21:23;100158.81;;;6.22;100.00
32131;BME280;18639;50.716;7.086;2023-04-21T04:23:49;100158.22;;;6.17;100.00
32131;BME280;18639;50.716;7.086;2023-04-21T04:26:16;100163.19;;;6.20;100.00
32131;BME280;18639;50.716;7.086;2023-04-21T04:28:41;100149.31;;;6.07;100.00
32131;BME280;18639;50.716;7.086;2023-04-21T04:31:06;100148.41;;;6.08;100.00
32131;BME280;18639;50.716;7.086;2023-04-21T04:33:32;100151.81;;;6.09;100.00
32131;BME280;18639;50.716;7.086;2023-04-21T04:35:57;100129.31;;;5.97;100.00
32131;BME280;18639;50.716;7.086;2023-04-21T04:38:22;100138.44;;;6.02;100.00
32131;BME280;18639;50.716;7.086;2023-04-21T04:40:54;100142.69;;;6.03;100.00
32131;BME280;18639;50.716;7.086;2023-04-21T04:43:21;100141.97;;;6.00;100.00
32131;BME280;18639;50.716;7.086;2023-04-21T04:45:47;100144.31;;;6.04;100.00
32131;BME280;18639;50.716;7.086;2023-04-21T04:48:13;100141.09;;;6.01;100.00
32131;BME280;18639;50.716;7.086;2023-04-21T04:50:38;100140.31;;;5.99;100.00
32131;BME280;18639;50.716;7.086;2023-04-21T04:53:03;100153.69;;;6.05;100.00
32131;BME280;18639;50.716;7.086;2023-04-21T04:55:28;100160.63;;;6.03;100.00
32131;BME280;18639;50.716;7.086;2023-04-21T04:57:54;100157.00;;;6.07;100.00
32131;BME280;18639;50.716;7.086;2023-04-21T05:00:19;100151.56;;;5.96;100.00
32131;BME280;18639;50.716;7.086;2023-04-21T05:02:44;100158.06;;;6.03;100.00
32131;BME280;18639;50.716;7.086;2023-04-21T05:05:10;100166.44;;;6.07;100.00
32131;BME280;18639;50.716;7.086;2023-04-21T05:07:36;100143.94;;;5.95;100.00
32131;BME280;18639;50.716;7.086;2023-04-21T05:10:02;100161.38;;;6.05;100.00
32131;BME280;18639;50.716;7.086;2023-04-21T05:12:29;100155.03;;;5.95;100.00
32131;BME280;18639;50.716;7.086;2023-04-21T05:14:55;100148.84;;;5.99;100.00
32131;BME280;18639;50.716;7.086;2023-04-21T05:17:20;100144.78;;;5.95;100.00
32131;BME280;18639;50.716;7.086;2023-04-21T05:19:45;100155.72;;;5.99;100.00
32131;BME280;18639;50.716;7.086;2023-04-21T05:22:10;100144.66;;;5.98;100.00
32131;BME280;18639;50.716;7.086;2023-04-21T05:24:36;100159.72;;;6.04;100.00
32131;BME280;18639;50.716;7.086;2023-04-21T05:27:01;100158.06;;;6.03;100.00
32131;BME280;18639;50.716;7.086;2023-04-21T05:29:27;100173.31;;;6.06;100.00
32131;BME280;18639;50.716;7.086;2023-04-21T05:31:52;100157.31;;;6.01;100.00
32131;BME280;18639;50.716;7.086;2023-04-21T05:34:18;100175.09;;;6.04;100.00
32131;BME280;18639;50.716;7.086;2023-04-21T05:36:43;100174.19;;;6.05;100.00
32131;BME280;18639;50.716;7.086;2023-04-21T05:39:08;100184.38;;;6.07;100.00
32131;BME280;18639;50.716;7.086;2023-04-21T05:41:34;100180.09;;;6.07;100.00
32131;BME280;18639;50.716;7.086;2023-04-21T05:43:59;100179.19;;;6.08;100.00
32131;BME280;18639;50.716;7.086;2023-04-21T05:46:24;100175.69;;;6.09;100.00
32131;BME280;18639;50.716;7.086;2023-04-21T05:48:50;100174.13;;;6.07;100.00
32131;BME280;18639;50.716;7.086;2023-04-21T05:51:15;100171.56;;;6.07;100.00
32131;BME280;18639;50.716;7.086;2023-04-21T05:53:42;100183.81;;;6.19;100.00
32131;BME280;18639;50.716;7.086;2023-04-21T05:56:08;100182.50;;;6.27;100.00
32131;BME280;18639;50.716;7.086;2023-04-21T05:58:34;100185.59;;;6.34;100.00
32131;BME280;18639;50.716;7.086;2023-04-21T06:01:00;100153.69;;;6.22;100.00
32131;BME280;18639;50.716;7.086;2023-04-21T06:03:25;100162.81;;;6.28;100.00
32131;BME280;18639;50.716;7.086;2023-04-21T06:05:54;100176.53;;;6.44;100.00
32131;BME280;18639;50.716;7.086;2023-04-21T06:08:20;100174.56;;;6.49;100.00
32131;BME280;18639;50.716;7.086;2023-04-21T06:10:46;100166.63;;;6.54;100.00
32131;BME280;18639;50.716;7.086;2023-04-21T06:13:11;100158.63;;;6.60;100.00
32131;BME280;18639;50.716;7.086;2023-04-21T06:15:36;100179.72;;;6.82;100.00
32131;BME280;18639;50.716;7.086;2023-04-21T06:18:01;100169.72;;;6.93;100.00
32131;BME280;18639;50.716;7.086;2023-04-21T06:20:27;100176.88;;;7.04;100.00
32131;BME280;18639;50.716;7.086;2023-04-21T06:22:52;100151.75;;;7.09;100.00
32131;BME280;18639;50.716;7.086;2023-04-21T06:25:18;100144.31;;;7.20;100.00
32131;BME280;18639;50.716;7.086;2023-04-21T06:27:43;100157.56;;;7.44;100.00
32131;BME280;18639;50.716;7.086;2023-04-21T06:30:10;100162.03;;;7.56;100.00
32131;BME280;18639;50.716;7.086;2023-04-21T06:32:35;100161.81;;;7.75;100.00
32131;BME280;18639;50.716;7.086;2023-04-21T06:35:00;100179.56;;;7.95;100.00
32131;BME280;18639;50.716;7.086;2023-04-21T06:37:26;100168.56;;;8.07;100.00
32131;BME280;18639;50.716;7.086;2023-04-21T06:39:51;100168.75;;;8.34;100.00
32131;BME280;18639;50.716;7.086;2023-04-21T06:42:16;100156.81;;;8.47;100.00
32131;BME280;18639;50.716;7.086;2023-04-21T06:44:42;100165.22;;;8.65;100.00
32131;BME280;18639;50.716;7.086;2023-04-21T06:47:07;100165.78;;;8.70;100.00
32131;BME280;18639;50.716;7.086;2023-04-21T06:49:32;100108.34;;;8.39;100.00
32131;BME280;18639;50.716;7.086;2023-04-21T06:51:58;100162.00;;;8.75;100.00
32131;BME280;18639;50.716;7.086;2023-04-21T06:54:23;100131.09;;;8.75;100.00
32131;BME280;18639;50.716;7.086;2023-04-21T06:56:48;100149.66;;;8.95;100.00
32131;BME280;18639;50.716;7.086;2023-04-21T06:59:15;100155.44;;;8.98;100.00
32131;BME280;18639;50.716;7.086;2023-04-21T07:01:40;100145.41;;;8.94;100.00
32131;BME280;18639;50.716;7.086;2023-04-21T07:04:05;100147.53;;;9.01;100.00
32131;BME280;18639;50.716;7.086;2023-04-21T07:06:31;100144.00;;;9.16;100.00
32131;BME280;18639;50.716;7.086;2023-04-21T07:08:56;100142.44;;;9.28;100.00
32131;BME280;18639;50.716;7.086;2023-04-21T07:11:21;100130.00;;;9.35;100.00
32131;BME280;18639;50.716;7.086;2023-04-21T07:13:47;100149.88;;;9.59;100.00
32131;BME280;18639;50.716;7.086;2023-04-21T07:16:12;100157.38;;;9.77;100.00
32131;BME280;18639;50.716;7.086;2023-04-21T07:18:40;100138.63;;;9.87;100.00
32131;BME280;18639;50.716;7.086;2023-04-21T07:21:06;100145.06;;;10.07;100.00
32131;BME280;18639;50.716;7.086;2023-04-21T07:23:35;100134.63;;;10.08;100.00
32131;BME280;18639;50.716;7.086;2023-04-21T07:26:00;100148.22;;;10.25;100.00
32131;BME280;18639;50.716;7.086;2023-04-21T07:28:25;100138.09;;;10.22;100.00
32131;BME280;18639;50.716;7.086;2023-04-21T07:30:50;100143.06;;;10.37;100.00
32131;BME280;18639;50.716;7.086;2023-04-21T07:33:16;100139.94;;;10.32;100.00
32131;BME280;18639;50.716;7.086;2023-04-21T07:35:41;100134.16;;;10.29;100.00
32131;BME280;18639;50.716;7.086;2023-04-21T07:38:07;100140.25;;;10.28;100.00
32131;BME280;18639;50.716;7.086;2023-04-21T07:40:33;100138.50;;;10.28;100.00
32131;BME280;18639;50.716;7.086;2023-04-21T07:42:58;100150.50;;;10.29;100.00
32131;BME280;18639;50.716;7.086;2023-04-21T07:45:24;100157.63;;;10.38;100.00
32131;BME280;18639;50.716;7.086;2023-04-21T07:47:52;100151.13;;;10.33;100.00
32131;BME280;18639;50.716;7.086;2023-04-21T07:50:17;100143.88;;;10.38;100.00
32131;BME280;18639;50.716;7.086;2023-04-21T07:52:43;100148.00;;;10.53;100.00
32131;BME280;18639;50.716;7.086;2023-04-21T07:55:08;100115.56;;;10.62;100.00
32131;BME280;18639;50.716;7.086;2023-04-21T07:57:34;100154.25;;;11.12;100.00
32131;BME280;18639;50.716;7.086;2023-04-21T08:00:06;100145.72;;;11.35;100.00
32131;BME280;18639;50.716;7.086;2023-04-21T08:02:31;100153.09;;;11.53;100.00
32131;BME280;18639;50.716;7.086;2023-04-21T08:04:57;100146.72;;;11.69;100.00
32131;BME280;18639;50.716;7.086;2023-04-21T08:07:22;100143.50;;;11.78;100.00
32131;BME280;18639;50.716;7.086;2023-04-21T08:09:48;100141.72;;;11.79;100.00
32131;BME280;18639;50.716;7.086;2023-04-21T08:12:14;100157.06;;;11.93;100.00
32131;BME280;18639;50.716;7.086;2023-04-21T08:14:39;100147.84;;;11.65;100.00
32131;BME280;18639;50.716;7.086;2023-04-21T08:17:04;100126.47;;;11.98;100.00
32131;BME280;18639;50.716;7.086;2023-04-21T08:19:30;100139.91;;;12.38;100.00
32131;BME280;18639;50.716;7.086;2023-04-21T08:21:55;100134.88;;;12.70;100.00
32131;BME280;18639;50.716;7.086;2023-04-21T08:24:21;100137.69;;;12.78;100.00
32131;BME280;18639;50.716;7.086;2023-04-21T08:26:46;100135.81;;;12.91;100.00
32131;BME280;18639;50.716;7.086;2023-04-21T08:29:12;100121.84;;;13.03;100.00
32131;BME280;18639;50.716;7.086;2023-04-21T08:31:38;100132.28;;;13.46;100.00
32131;BME280;18639;50.716;7.086;2023-04-21T08:34:03;100139.19;;;13.68;100.00
32131;BME280;18639;50.716;7.086;2023-04-21T08:36:28;100126.66;;;13.73;100.00
32131;BME280;18639;50.716;7.086;2023-04-21T08:38:54;100109.19;;;13.43;97.90
32131;BME280;18639;50.716;7.086;2023-04-21T08:41:20;100126.94;;;13.59;99.94
32131;BME280;18639;50.716;7.086;2023-04-21T08:43:46;100136.09;;;13.74;100.00
32131;BME280;18639;50.716;7.086;2023-04-21T08:46:11;100128.59;;;13.92;99.17
32131;BME280;18639;50.716;7.086;2023-04-21T08:48:37;100122.31;;;13.95;97.85
32131;BME280;18639;50.716;7.086;2023-04-21T08:51:05;100107.25;;;14.09;95.87
32131;BME280;18639;50.716;7.086;2023-04-21T08:53:31;100127.47;;;14.47;97.40
32131;BME280;18639;50.716;7.086;2023-04-21T08:55:56;100131.19;;;14.85;91.85
32131;BME280;18639;50.716;7.086;2023-04-21T08:58:22;100118.00;;;15.16;89.39
32131;BME280;18639;50.716;7.086;2023-04-21T09:00:50;100126.03;;;15.73;90.74
32131;BME280;18639;50.716;7.086;2023-04-21T09:03:23;100106.16;;;16.47;84.84
32131;BME280;18639;50.716;7.086;2023-04-21T09:06:06;100113.34;;;17.09;76.46
32131;BME280;18639;50.716;7.086;2023-04-21T09:08:33;100113.16;;;16.47;67.49
32131;BME280;18639;50.716;7.086;2023-04-21T09:10:59;100115.97;;;17.00;71.15
32131;BME280;18639;50.716;7.086;2023-04-21T09:13:33;100106.53;;;16.99;72.58
32131;BME280;18639;50.716;7.086;2023-04-21T09:16:00;100112.06;;;16.59;68.35
32131;BME280;18639;50.716;7.086;2023-04-21T09:18:28;100117.91;;;17.43;70.81
32131;BME280;18639;50.716;7.086;2023-04-21T09:23:46;100105.63;;;17.71;67.40
32131;BME280;18639;50.716;7.086;2023-04-21T09:26:12;100101.28;;;18.23;65.49
32131;BME280;18639;50.716;7.086;2023-04-21T09:28:42;100094.25;;;18.23;60.28
32131;BME280;18639;50.716;7.086;2023-04-21T09:31:16;100112.78;;;18.04;63.02
32131;BME280;18639;50.716;7.086;2023-04-21T09:33:48;100089.78;;;18.67;59.61
32131;BME280;18639;50.716;7.086;2023-04-21T09:36:18;100090.78;;;19.16;59.61
32131;BME280;18639;50.716;7.086;2023-04-21T09:38:54;100073.97;;;19.51;57.98
32131;BME280;18639;50.716;7.086;2023-04-21T09:41:20;100083.16;;;19.80;56.07
32131;BME280;18639;50.716;7.086;2023-04-21T09:43:46;100088.94;;;19.09;55.94
32131;BME280;18639;50.716;7.086;2023-04-21T09:46:15;100065.56;;;19.40;59.08
32131;BME280;18639;50.716;7.086;2023-04-21T09:48:43;100082.31;;;20.03;58.20
32131;BME280;18639;50.716;7.086;2023-04-21T09:51:11;100071.53;;;19.90;54.65
32131;BME280;18639;50.716;7.086;2023-04-21T09:53:39;100072.03;;;19.69;54.83
32131;BME280;18639;50.716;7.086;2023-04-21T09:56:09;100058.88;;;19.94;54.30
32131;BME280;18639;50.716;7.086;2023-04-21T09:58:40;100066.84;;;20.41;55.83
32131;BME280;18639;50.716;7.086;2023-04-21T10:01:06;100060.84;;;20.08;52.66
32131;BME280;18639;50.716;7.086;2023-04-21T10:03:32;100041.41;;;20.41;56.39
32131;BME280;18639;50.716;7.086;2023-04-21T10:05:59;100037.16;;;20.40;54.07
32131;BME280;18639;50.716;7.086;2023-04-21T10:08:25;100058.22;;;20.63;53.06
32131;BME280;18639;50.716;7.086;2023-04-21T10:10:50;100053.25;;;20.76;52.09
32131;BME280;18639;50.716;7.086;2023-04-21T10:13:17;100043.19;;;21.11;52.45
32131;BME280;18639;50.716;7.086;2023-04-21T10:15:42;100009.44;;;20.99;52.30
32131;BME280;18639;50.716;7.086;2023-04-21T10:18:22;100047.16;;;21.37;51.38
32131;BME280;18639;50.716;7.086;2023-04-21T10:26:08;100035.84;;;21.06;51.27
32131;BME280;18639;50.716;7.086;2023-04-21T10:28:44;100032.59;;;21.04;50.42
32131;BME280;18639;50.716;7.086;2023-04-21T10:31:34;100029.69;;;21.45;49.87
32131;BME280;18639;50.716;7.086;2023-04-21T10:39:09;100018.16;;;20.69;49.82
32131;BME280;18639;50.716;7.086;2023-04-21T10:41:41;100012.22;;;20.36;50.04
32131;BME280;18639;50.716;7.086;2023-04-21T10:44:11;99990.56;;;19.79;51.51
32131;BME280;18639;50.716;7.086;2023-04-21T10:46:39;99991.56;;;19.46;53.90
32131;BME280;18639;50.716;7.086;2023-04-21T10:49:09;99990.72;;;19.13;53.07
32131;BME280;18639;50.716;7.086;2023-04-21T10:54:21;99983.97;;;18.36;55.52
32131;BME280;18639;50.716;7.086;2023-04-21T10:56:48;99974.53;;;18.09;54.87
32131;BME280;18639;50.716;7.086;2023-04-21T10:59:15;99966.25;;;17.88;56.74
32131;BME280;18639;50.716;7.086;2023-04-21T11:01:41;99962.03;;;17.69;58.31
32131;BME280;18639;50.716;7.086;2023-04-21T11:04:12;99955.44;;;17.39;58.27
32131;BME280;18639;50.716;7.086;2023-04-21T11:06:38;99958.25;;;17.20;59.10
32131;BME280;18639;50.716;7.086;2023-04-21T11:09:03;99955.00;;;17.26;59.91
32131;BME280;18639;50.716;7.086;2023-04-21T11:11:28;99965.78;;;16.88;56.67
32131;BME280;18639;50.716;7.086;2023-04-21T11:13:54;99950.72;;;16.54;57.21
32131;BME280;18639;50.716;7.086;2023-04-21T11:16:19;99945.19;;;16.57;57.61
32131;BME280;18639;50.716;7.086;2023-04-21T11:18:44;99944.28;;;16.49;58.51
32131;BME280;18639;50.716;7.086;2023-04-21T11:21:17;99946.09;;;16.48;58.19
32131;BME280;18639;50.716;7.086;2023-04-21T11:23:53;99938.13;;;16.50;58.46
32131;BME280;18639;50.716;7.086;2023-04-21T11:26:29;99932.44;;;16.54;59.12
32131;BME280;18639;50.716;7.086;2023-04-21T11:28:55;99939.16;;;16.29;58.92
32131;BME280;18639;50.716;7.086;2023-04-21T11:31:22;99931.94;;;16.23;57.12
32131;BME280;18639;50.716;7.086;2023-04-21T11:33:52;99924.50;;;16.28;58.78
32131;BME280;18639;50.716;7.086;2023-04-21T11:36:20;99920.44;;;16.16;57.34
32131;BME280;18639;50.716;7.086;2023-04-21T11:38:46;99910.41;;;16.21;59.00
32131;BME280;18639;50.716;7.086;2023-04-21T11:41:19;99910.91;;;16.34;56.63
32131;BME280;18639;50.716;7.086;2023-04-21T11:43:45;99884.91;;;16.15;55.27
32131;BME280;18639;50.716;7.086;2023-04-21T11:46:12;99919.09;;;16.39;56.50
32131;BME280;18639;50.716;7.086;2023-04-21T11:48:37;99908.75;;;16.48;57.38
32131;BME280;18639;50.716;7.086;2023-04-21T11:51:02;99897.34;;;16.49;56.29
32131;BME280;18639;50.716;7.086;2023-04-21T11:53:28;99909.69;;;16.47;54.32
32131;BME280;18639;50.716;7.086;2023-04-21T11:55:53;99886.31;;;16.55;55.40
32131;BME280;18639;50.716;7.086;2023-04-21T11:58:20;99891.81;;;16.61;56.09
32131;BME280;18639;50.716;7.086;2023-04-21T12:00:46;99889.34;;;16.60;53.22
32131;BME280;18639;50.716;7.086;2023-04-21T12:03:12;99882.38;;;16.68;54.13
32131;BME280;18639;50.716;7.086;2023-04-21T12:05:37;99887.97;;;16.56;54.02
32131;BME280;18639;50.716;7.086;2023-04-21T12:08:03;99874.25;;;16.54;57.06
32131;BME280;18639;50.716;7.086;2023-04-21T12:10:30;99875.69;;;16.66;58.83
32131;BME280;18639;50.716;7.086;2023-04-21T12:12:56;99875.91;;;16.72;55.57
32131;BME280;18639;50.716;7.086;2023-04-21T12:15:21;99876.72;;;16.73;54.82
32131;BME280;18639;50.716;7.086;2023-04-21T12:17:51;99867.25;;;16.54;53.24
32131;BME280;18639;50.716;7.086;2023-04-21T12:20:19;99872.41;;;16.81;53.06
32131;BME280;18639;50.716;7.086;2023-04-21T12:22:45;99867.38;;;16.88;53.76
32131;BME280;18639;50.716;7.086;2023-04-21T12:25:11;99873.78;;;16.94;55.18
32131;BME280;18639;50.716;7.086;2023-04-21T12:27:36;99856.00;;;16.71;53.82
32131;BME280;18639;50.716;7.086;2023-04-21T12:30:02;99880.75;;;16.85;55.34
32131;BME280;18639;50.716;7.086;2023-04-21T12:32:28;99855.19;;;16.71;53.53
32131;BME280;18639;50.716;7.086;2023-04-21T12:34:53;99875.97;;;16.80;52.93
32131;BME280;18639;50.716;7.086;2023-04-21T12:37:18;99867.38;;;16.88;52.67
32131;BME280;18639;50.716;7.086;2023-04-21T12:39:44;99852.53;;;16.89;53.97
32131;BME280;18639;50.716;7.086;2023-04-21T12:42:09;99867.00;;;17.01;52.41
32131;BME280;18639;50.716;7.086;2023-04-21T12:44:34;99848.28;;;17.05;53.36
32131;BME280;18639;50.716;7.086;2023-04-21T12:47:00;99850.03;;;17.22;51.94
32131;BME280;18639;50.716;7.086;2023-04-21T12:49:25;99853.19;;;17.34;52.11
32131;BME280;18639;50.716;7.086;2023-04-21T12:51:50;99854.94;;;17.25;52.23
32131;BME280;18639;50.716;7.086;2023-04-21T12:54:16;99854.84;;;17.35;53.73
32131;BME280;18639;50.716;7.086;2023-04-21T12:56:42;99858.44;;;17.34;53.29
32131;BME280;18639;50.716;7.086;2023-04-21T12:59:08;99866.91;;;17.36;51.49
32131;BME280;18639;50.716;7.086;2023-04-21T13:01:35;99871.78;;;17.31;51.28
32131;BME280;18639;50.716;7.086;2023-04-21T13:04:01;99849.44;;;17.37;51.86